createdAt,value
2018-08-22T00:00:33.898Z,83.72
2018-08-22T00:01:33.920Z,83.72
2018-08-22T00:02:33.904Z,83.14
2018-08-22T00:03:33.908Z,83.52
2018-08-22T00:04:33.910Z,85.06
2018-08-22T00:05:33.914Z,84.97
2018-08-22T00:06:33.915Z,84.92
2018-08-22T00:07:33.919Z,84.92
2018-08-22T00:08:33.923Z,85.06
2018-08-22T00:09:33.925Z,85.21
2018-08-22T00:10:33.929Z,86.27
2018-08-22T00:11:33.931Z,85.21
2018-08-22T00:12:33.935Z,84.83
2018-08-22T00:13:33.938Z,84.97
2018-08-22T00:14:33.939Z,85.31
2018-08-22T00:15:33.944Z,85.11
2018-08-22T00:16:33.946Z,85.25
2018-08-22T00:17:33.950Z,86.51
2018-08-22T00:18:33.951Z,85.69
2018-08-22T00:19:33.955Z,85.88
2018-08-22T00:20:33.959Z,85.98
2018-08-22T00:21:33.961Z,85.98
2018-08-22T00:22:34.010Z,86.56
2018-08-22T00:23:33.967Z,86.27
2018-08-22T00:24:33.970Z,86.46
2018-08-22T00:25:33.972Z,86.65
2018-08-22T00:26:33.974Z,85.98
2018-08-22T00:27:33.978Z,87.23
2018-08-22T00:28:33.981Z,86.85
2018-08-22T00:29:33.985Z,86.99
2018-08-22T00:30:33.987Z,87.42
2018-08-22T00:31:33.989Z,87.90
2018-08-22T00:32:33.992Z,87.13
2018-08-22T00:33:33.996Z,87.33
2018-08-22T00:34:33.997Z,87.33
2018-08-22T00:35:34.001Z,86.94
2018-08-22T00:36:34.004Z,87.23
2018-08-22T00:37:34.006Z,86.56
2018-08-22T00:38:34.009Z,87.23
2018-08-22T00:39:34.012Z,87.33
2018-08-22T00:40:34.015Z,87.42
2018-08-22T00:41:34.018Z,86.94
2018-08-22T00:42:34.021Z,85.78
2018-08-22T00:43:34.024Z,85.06
2018-08-22T00:44:34.029Z,85.16
2018-08-22T00:45:34.029Z,84.48
2018-08-22T00:46:34.031Z,84.10
2018-08-22T00:47:34.035Z,84.39
2018-08-22T00:48:34.036Z,84.87
2018-08-22T00:49:34.040Z,85.44
2018-08-22T00:50:34.042Z,85.06
2018-08-22T00:51:34.046Z,84.87
2018-08-22T00:52:34.052Z,84.77
2018-08-22T00:53:34.052Z,84.29
2018-08-22T00:54:34.055Z,84.39
2018-08-22T00:55:34.060Z,83.52
2018-08-22T00:56:34.062Z,85.06
2018-08-22T00:57:34.064Z,84.19
2018-08-22T00:58:34.070Z,83.72
2018-08-22T00:59:34.070Z,83.62
2018-08-22T01:00:34.073Z,83.42
2018-08-22T01:01:34.076Z,83.81
2018-08-22T01:02:34.078Z,82.94
2018-08-22T01:03:34.082Z,82.85
2018-08-22T01:04:34.087Z,82.27
2018-08-22T01:05:34.088Z,82.37
2018-08-22T01:06:34.090Z,82.17
2018-08-22T01:07:34.093Z,82.31
2018-08-22T01:08:34.097Z,82.65
2018-08-22T01:09:34.098Z,82.46
2018-08-22T01:10:34.101Z,82.56
2018-08-22T01:11:34.103Z,82.17
2018-08-22T01:12:34.109Z,82.27
2018-08-22T01:13:34.116Z,82.98
2018-08-22T01:14:34.113Z,82.70
2018-08-22T01:15:34.117Z,82.41
2018-08-22T01:16:34.119Z,82.50
2018-08-22T01:17:34.122Z,81.93
2018-08-22T01:18:34.124Z,82.50
2018-08-22T01:19:34.129Z,81.63
2018-08-22T01:20:34.130Z,81.45
2018-08-22T01:21:34.135Z,81.93
2018-08-22T01:22:34.137Z,82.12
2018-08-22T01:23:34.140Z,82.31
2018-08-22T01:24:34.144Z,83.08
2018-08-22T01:25:34.146Z,82.60
2018-08-22T01:26:34.150Z,81.88
2018-08-22T01:27:34.151Z,81.88
2018-08-22T01:28:34.156Z,81.21
2018-08-22T01:29:34.158Z,81.35
2018-08-22T01:30:34.161Z,81.40
2018-08-22T01:31:34.163Z,81.73
2018-08-22T01:32:34.167Z,81.63
2018-08-22T01:33:34.171Z,81.73
2018-08-22T01:34:34.172Z,81.63
2018-08-22T01:35:34.176Z,81.83
2018-08-22T01:36:34.181Z,81.73
2018-08-22T01:37:34.185Z,81.63
2018-08-22T01:38:34.186Z,81.45
2018-08-22T01:39:34.187Z,81.73
2018-08-22T01:40:34.192Z,81.93
2018-08-22T01:41:34.194Z,81.93
2018-08-22T01:42:34.198Z,81.63
2018-08-22T01:43:34.199Z,81.83
2018-08-22T01:44:34.203Z,81.54
2018-08-22T01:45:34.208Z,81.83
2018-08-22T01:46:34.210Z,81.54
2018-08-22T01:47:34.214Z,81.83
2018-08-22T01:48:34.215Z,81.54
2018-08-22T01:49:34.219Z,81.83
2018-08-22T01:50:34.225Z,82.08
2018-08-22T01:51:34.225Z,82.56
2018-08-22T01:52:34.228Z,82.94
2018-08-22T01:53:34.229Z,82.75
2018-08-22T01:54:34.234Z,83.14
2018-08-22T01:55:34.235Z,83.14
2018-08-22T01:56:34.239Z,82.85
2018-08-22T01:57:34.243Z,83.04
2018-08-22T01:58:34.247Z,82.85
2018-08-22T01:59:34.249Z,83.14
2018-08-22T02:00:34.252Z,83.33
2018-08-22T02:01:34.254Z,82.94
2018-08-22T02:02:34.257Z,83.42
2018-08-22T02:03:34.261Z,83.52
2018-08-22T02:04:34.263Z,83.42
2018-08-22T02:05:34.266Z,84.39
2018-08-22T02:06:34.268Z,85.16
2018-08-22T02:07:34.272Z,84.87
2018-08-22T02:08:34.276Z,84.58
2018-08-22T02:09:34.278Z,84.92
2018-08-22T02:10:34.281Z,85.02
2018-08-22T02:11:34.283Z,85.02
2018-08-22T02:12:34.290Z,85.31
2018-08-22T02:13:34.293Z,85.31
2018-08-22T02:14:34.292Z,85.60
2018-08-22T02:15:34.295Z,85.69
2018-08-22T02:16:34.298Z,85.98
2018-08-22T02:17:34.301Z,86.18
2018-08-22T02:18:34.302Z,86.08
2018-08-22T02:19:34.307Z,85.98
2018-08-22T02:20:34.311Z,85.98
2018-08-22T02:21:34.314Z,85.60
2018-08-22T02:22:34.315Z,86.56
2018-08-22T02:23:34.318Z,87.23
2018-08-22T02:24:34.322Z,86.90
2018-08-22T02:25:34.324Z,86.46
2018-08-22T02:26:34.327Z,87.52
2018-08-22T02:27:34.329Z,86.99
2018-08-22T02:28:34.333Z,86.99
2018-08-22T02:29:34.335Z,86.99
2018-08-22T02:30:34.338Z,87.96
2018-08-22T02:31:34.341Z,86.99
2018-08-22T02:32:34.344Z,87.48
2018-08-22T02:33:34.350Z,87.86
2018-08-22T02:34:34.348Z,87.76
2018-08-22T02:35:34.351Z,87.67
2018-08-22T02:36:34.354Z,88.06
2018-08-22T02:37:34.358Z,88.24
2018-08-22T02:38:34.361Z,88.34
2018-08-22T02:39:34.363Z,88.44
2018-08-22T02:40:34.367Z,87.86
2018-08-22T02:41:34.369Z,88.06
2018-08-22T02:42:34.372Z,89.30
2018-08-22T02:43:34.373Z,88.34
2018-08-22T02:44:34.378Z,89.78
2018-08-22T02:45:34.379Z,89.78
2018-08-22T02:46:34.383Z,89.11
2018-08-22T02:47:34.384Z,88.73
2018-08-22T02:48:34.388Z,90.07
2018-08-22T02:49:34.391Z,89.69
2018-08-22T02:50:34.392Z,90.94
2018-08-22T02:51:34.396Z,90.94
2018-08-22T02:52:34.397Z,90.51
2018-08-22T02:53:34.402Z,89.83
2018-08-22T02:54:34.404Z,90.51
2018-08-22T02:55:34.406Z,89.93
2018-08-22T02:56:34.408Z,89.83
2018-08-22T02:57:34.412Z,89.64
2018-08-22T02:58:34.413Z,90.70
2018-08-22T02:59:34.417Z,91.37
2018-08-22T03:00:34.420Z,91.56
2018-08-22T03:01:34.422Z,91.03
2018-08-22T03:02:34.425Z,90.80
2018-08-22T03:03:34.427Z,91.47
2018-08-22T03:04:34.430Z,91.56
2018-08-22T03:05:34.433Z,89.74
2018-08-22T03:06:34.434Z,89.16
2018-08-22T03:07:34.438Z,90.89
2018-08-22T03:08:34.441Z,90.22
2018-08-22T03:09:34.443Z,91.37
2018-08-22T03:10:34.444Z,90.51
2018-08-22T03:11:34.449Z,89.93
2018-08-22T03:12:34.450Z,91.75
2018-08-22T03:13:34.454Z,91.56
2018-08-22T03:14:34.455Z,91.56
2018-08-22T03:15:34.460Z,90.99
2018-08-22T03:16:34.461Z,91.95
2018-08-22T03:17:34.464Z,92.05
2018-08-22T03:18:34.466Z,91.37
2018-08-22T03:19:34.468Z,90.99
2018-08-22T03:20:34.470Z,90.41
2018-08-22T03:21:34.473Z,91.18
2018-08-22T03:22:34.476Z,91.18
2018-08-22T03:23:34.485Z,91.95
2018-08-22T03:24:34.481Z,91.37
2018-08-22T03:25:34.483Z,91.75
2018-08-22T03:26:34.485Z,92.05
2018-08-22T03:27:34.488Z,91.28
2018-08-22T03:28:34.491Z,91.47
2018-08-22T03:29:34.494Z,92.05
2018-08-22T03:30:34.497Z,92.05
2018-08-22T03:31:34.499Z,91.47
2018-08-22T03:32:34.502Z,91.95
2018-08-22T03:33:34.505Z,93.77
2018-08-22T03:34:34.505Z,94.45
2018-08-22T03:35:34.509Z,93.87
2018-08-22T03:36:34.511Z,92.96
2018-08-22T03:37:34.515Z,94.31
2018-08-22T03:38:34.515Z,93.82
2018-08-22T03:39:34.519Z,93.39
2018-08-22T03:40:34.521Z,93.29
2018-08-22T03:41:34.523Z,93.29
2018-08-22T03:42:34.529Z,94.78
2018-08-22T03:43:34.529Z,94.78
2018-08-22T03:44:34.532Z,95.55
2018-08-22T03:45:34.533Z,95.26
2018-08-22T03:46:34.538Z,94.98
2018-08-22T03:47:34.537Z,95.65
2018-08-22T03:48:34.541Z,96.22
2018-08-22T03:49:34.544Z,96.32
2018-08-22T03:50:34.546Z,95.36
2018-08-22T03:51:34.548Z,95.26
2018-08-22T03:52:34.551Z,94.98
2018-08-22T03:53:34.553Z,94.98
2018-08-22T03:54:34.555Z,94.49
2018-08-22T03:55:34.556Z,94.69
2018-08-22T03:56:34.559Z,94.98
2018-08-22T03:57:34.562Z,94.11
2018-08-22T03:58:34.564Z,93.05
2018-08-22T03:59:34.567Z,93.58
2018-08-22T04:00:34.576Z,93.15
2018-08-22T04:01:34.572Z,93.68
2018-08-22T04:02:34.573Z,93.68
2018-08-22T04:03:34.576Z,93.68
2018-08-22T04:04:34.578Z,95.79
2018-08-22T04:05:34.581Z,96.27
2018-08-22T04:06:34.581Z,96.03
2018-08-22T04:07:34.587Z,94.78
2018-08-22T04:08:34.589Z,94.31
2018-08-22T04:09:34.590Z,93.68
2018-08-22T04:10:34.591Z,94.21
2018-08-22T04:11:34.595Z,95.60
2018-08-22T04:12:34.597Z,95.55
2018-08-22T04:13:34.599Z,96.03
2018-08-22T04:14:34.600Z,96.37
2018-08-22T04:15:34.604Z,95.75
2018-08-22T04:16:34.605Z,95.26
2018-08-22T04:17:34.609Z,94.01
2018-08-22T04:18:34.609Z,93.54
2018-08-22T04:19:34.614Z,94.11
2018-08-22T04:20:34.615Z,93.77
2018-08-22T04:21:34.617Z,93.34
2018-08-22T04:22:34.623Z,93.10
2018-08-22T04:23:34.621Z,93.10
2018-08-22T04:24:34.624Z,93.87
2018-08-22T04:25:34.625Z,93.19
2018-08-22T04:26:34.629Z,93.96
2018-08-22T04:27:34.632Z,93.73
2018-08-22T04:28:34.634Z,94.35
2018-08-22T04:29:34.646Z,93.68
2018-08-22T04:30:34.637Z,93.49
2018-08-22T04:31:34.641Z,93.68
2018-08-22T04:32:34.642Z,93.29
2018-08-22T04:33:34.644Z,93.01
2018-08-22T04:34:34.646Z,93.68
2018-08-22T04:35:34.650Z,93.29
2018-08-22T04:36:34.654Z,92.81
2018-08-22T04:37:34.655Z,92.81
2018-08-22T04:38:34.655Z,92.81
2018-08-22T04:39:34.659Z,93.49
2018-08-22T04:40:34.661Z,93.39
2018-08-22T04:41:34.694Z,94.06
2018-08-22T04:42:34.665Z,93.96
2018-08-22T04:43:34.667Z,93.49
2018-08-22T04:44:34.669Z,93.58
2018-08-22T04:45:34.673Z,93.49
2018-08-22T04:46:34.674Z,93.39
2018-08-22T04:47:34.678Z,93.29
2018-08-22T04:48:34.686Z,94.06
2018-08-22T04:49:34.683Z,93.39
2018-08-22T04:50:34.684Z,93.49
2018-08-22T04:51:34.688Z,93.96
2018-08-22T04:52:34.690Z,95.79
2018-08-22T04:53:34.692Z,95.21
2018-08-22T04:54:34.694Z,94.73
2018-08-22T04:55:34.696Z,94.93
2018-08-22T04:56:34.698Z,93.29
2018-08-22T04:57:34.702Z,93.68
2018-08-22T04:58:34.703Z,93.19
2018-08-22T04:59:34.706Z,92.91
2018-08-22T05:00:34.707Z,93.29
2018-08-22T05:01:34.711Z,92.81
2018-08-22T05:02:34.714Z,93.77
2018-08-22T05:03:34.716Z,94.35
2018-08-22T05:04:34.719Z,94.83
2018-08-22T05:05:34.720Z,94.26
2018-08-22T05:06:34.722Z,95.12
2018-08-22T05:07:34.728Z,94.35
2018-08-22T05:08:34.728Z,93.87
2018-08-22T05:09:34.731Z,93.96
2018-08-22T05:10:34.731Z,93.58
2018-08-22T05:11:34.736Z,94.35
2018-08-22T05:12:34.737Z,93.87
2018-08-22T05:13:34.740Z,93.77
2018-08-22T05:14:34.743Z,93.34
2018-08-22T05:15:34.745Z,92.86
2018-08-22T05:16:34.748Z,93.24
2018-08-22T05:17:34.751Z,94.01
2018-08-22T05:18:34.751Z,93.91
2018-08-22T05:19:34.754Z,93.82
2018-08-22T05:20:34.758Z,93.73
2018-08-22T05:21:34.760Z,93.34
2018-08-22T05:22:34.763Z,92.38
2018-08-22T05:23:34.763Z,91.61
2018-08-22T05:24:34.794Z,92.19
2018-08-22T05:25:34.771Z,92.29
2018-08-22T05:26:34.772Z,92.96
2018-08-22T05:27:34.775Z,93.34
2018-08-22T05:28:34.778Z,92.96
2018-08-22T05:29:34.782Z,93.34
2018-08-22T05:30:34.783Z,92.96
2018-08-22T05:31:34.786Z,93.73
2018-08-22T05:32:34.787Z,93.44
2018-08-22T05:33:34.791Z,92.47
2018-08-22T05:34:34.792Z,92.76
2018-08-22T05:35:34.797Z,92.29
2018-08-22T05:36:34.799Z,92.38
2018-08-22T05:37:34.802Z,92.29
2018-08-22T05:38:34.803Z,93.15
2018-08-22T05:39:34.807Z,92.76
2018-08-22T05:40:34.872Z,92.38
2018-08-22T05:41:34.813Z,92.19
2018-08-22T05:42:34.815Z,91.22
2018-08-22T05:43:34.818Z,90.31
2018-08-22T05:44:34.821Z,90.89
2018-08-22T05:45:34.822Z,91.56
2018-08-22T05:46:34.827Z,90.59
2018-08-22T05:47:34.828Z,89.54
2018-08-22T05:48:34.831Z,91.27
2018-08-22T05:49:34.836Z,91.56
2018-08-22T05:50:34.836Z,91.66
2018-08-22T05:51:34.840Z,91.60
2018-08-22T05:52:34.845Z,90.35
2018-08-22T05:53:34.847Z,91.46
2018-08-22T05:54:34.849Z,91.70
2018-08-22T05:55:34.852Z,90.98
2018-08-22T05:56:34.855Z,89.64
2018-08-22T05:57:34.876Z,88.71
2018-08-22T05:58:34.861Z,88.53
2018-08-22T05:59:34.862Z,89.87
2018-08-22T06:00:34.867Z,90.26
2018-08-22T06:01:34.870Z,89.68
2018-08-22T06:02:34.872Z,88.81
2018-08-22T06:03:34.875Z,88.38
2018-08-22T06:04:34.879Z,87.70
2018-08-22T06:05:34.883Z,87.41
2018-08-22T06:06:34.885Z,87.03
2018-08-22T06:07:34.887Z,87.51
2018-08-22T06:08:34.891Z,87.12
2018-08-22T06:09:34.895Z,87.84
2018-08-22T06:10:34.897Z,86.49
2018-08-22T06:11:34.901Z,86.11
2018-08-22T06:12:34.904Z,86.11
2018-08-22T06:13:34.906Z,85.82
2018-08-22T06:14:34.911Z,85.38
2018-08-22T06:15:34.928Z,85.38
2018-08-22T06:16:34.917Z,83.55
2018-08-22T06:17:34.926Z,83.74
2018-08-22T06:18:34.923Z,83.36
2018-08-22T06:19:34.928Z,83.55
2018-08-22T06:20:34.933Z,82.39
2018-08-22T06:21:34.935Z,82.87
2018-08-22T06:22:34.939Z,82.20
2018-08-22T06:23:34.943Z,81.91
2018-08-22T06:24:34.947Z,81.81
2018-08-22T06:25:34.962Z,81.43
2018-08-22T06:26:34.953Z,81.43
2018-08-22T06:27:34.959Z,81.43
2018-08-22T06:28:34.962Z,81.81
2018-08-22T06:29:34.966Z,81.52
2018-08-22T06:30:34.969Z,81.62
2018-08-22T06:31:34.972Z,81.81
2018-08-22T06:32:34.978Z,81.52
2018-08-22T06:33:34.982Z,82.20
2018-08-22T06:34:34.985Z,81.91
2018-08-22T06:35:34.989Z,81.62
2018-08-22T06:36:34.993Z,82.10
2018-08-22T06:37:34.997Z,81.91
2018-08-22T06:38:34.999Z,81.91
2018-08-22T06:39:35.004Z,81.72
2018-08-22T06:40:35.010Z,82.01
2018-08-22T06:41:35.020Z,81.81
2018-08-22T06:42:35.017Z,82.29
2018-08-22T06:43:35.024Z,81.62
2018-08-22T06:44:35.023Z,82.49
2018-08-22T06:45:35.030Z,82.39
2018-08-22T06:46:35.032Z,82.49
2018-08-22T06:47:35.035Z,82.39
2018-08-22T06:48:35.041Z,82.29
2018-08-22T06:49:35.044Z,82.34
2018-08-22T06:50:35.050Z,82.62
2018-08-22T06:51:35.052Z,82.72
2018-08-22T06:52:35.056Z,82.05
2018-08-22T06:53:35.061Z,82.05
2018-08-22T06:54:35.063Z,82.82
2018-08-22T06:55:35.070Z,81.95
2018-08-22T06:56:35.072Z,81.66
2018-08-22T06:57:35.081Z,81.57
2018-08-22T06:58:35.080Z,80.89
2018-08-22T06:59:35.093Z,81.47
2018-08-22T07:00:35.090Z,81.02
2018-08-22T07:01:35.093Z,80.54
2018-08-22T07:02:35.098Z,80.64
2018-08-22T07:03:35.101Z,80.64
2018-08-22T07:04:35.105Z,80.26
2018-08-22T07:05:35.111Z,79.87
2018-08-22T07:06:35.114Z,79.52
2018-08-22T07:07:35.122Z,79.62
2018-08-22T07:08:35.124Z,79.72
2018-08-22T07:09:35.127Z,79.43
2018-08-22T07:10:35.132Z,80.35
2018-08-22T07:11:35.140Z,80.39
2018-08-22T07:12:35.140Z,80.30
2018-08-22T07:13:35.145Z,79.52
2018-08-22T07:14:35.149Z,79.33
2018-08-22T07:15:35.153Z,79.33
2018-08-22T07:16:35.159Z,79.33
2018-08-22T07:17:35.162Z,78.75
2018-08-22T07:18:35.166Z,78.89
2018-08-22T07:19:35.171Z,78.27
2018-08-22T07:20:35.175Z,78.75
2018-08-22T07:21:35.180Z,78.85
2018-08-22T07:22:35.185Z,79.14
2018-08-22T07:23:35.190Z,78.99
2018-08-22T07:24:35.194Z,78.02
2018-08-22T07:25:35.200Z,77.73
2018-08-22T07:26:35.203Z,78.02
2018-08-22T07:27:35.213Z,77.92
2018-08-22T07:28:35.213Z,77.83
2018-08-22T07:29:35.218Z,78.41
2018-08-22T07:30:35.221Z,77.53
2018-08-22T07:31:35.227Z,76.95
2018-08-22T07:32:35.234Z,77.00
2018-08-22T07:33:35.236Z,77.19
2018-08-22T07:34:35.241Z,76.90
2018-08-22T07:35:35.255Z,77.19
2018-08-22T07:36:35.250Z,77.48
2018-08-22T07:37:35.256Z,76.90
2018-08-22T07:38:35.260Z,76.80
2018-08-22T07:39:35.268Z,76.42
2018-08-22T07:40:35.270Z,76.51
2018-08-22T07:41:35.275Z,77.19
2018-08-22T07:42:35.278Z,77.32
2018-08-22T07:43:35.283Z,76.74
2018-08-22T07:44:35.289Z,76.74
2018-08-22T07:45:35.293Z,76.16
2018-08-22T07:46:35.298Z,75.87
2018-08-22T07:47:35.304Z,75.68
2018-08-22T07:48:35.311Z,76.45
2018-08-22T07:49:35.315Z,75.97
2018-08-22T07:50:35.320Z,75.78
2018-08-22T07:51:35.324Z,75.52
2018-08-22T07:52:35.354Z,76.10
2018-08-22T07:53:35.336Z,76.39
2018-08-22T07:54:35.388Z,75.81
2018-08-22T07:55:35.345Z,76.01
2018-08-22T07:56:35.350Z,76.10
2018-08-22T07:57:35.356Z,76.29
2018-08-22T07:58:35.359Z,76.14
2018-08-22T07:59:35.364Z,76.10
2018-08-22T08:00:35.372Z,75.85
2018-08-22T08:01:35.377Z,75.17
2018-08-22T08:02:35.380Z,75.52
2018-08-22T08:03:35.387Z,75.07
2018-08-22T08:04:35.392Z,74.98
2018-08-22T08:05:35.469Z,74.69
2018-08-22T08:06:35.402Z,74.30
2018-08-22T08:07:35.409Z,74.49
2018-08-22T08:08:35.436Z,73.43
2018-08-22T08:09:35.423Z,72.95
2018-08-22T08:10:35.425Z,73.53
2018-08-22T08:11:35.430Z,73.66
2018-08-22T08:12:35.435Z,73.27
2018-08-22T08:13:35.442Z,73.18
2018-08-22T08:14:35.448Z,72.79
2018-08-22T08:15:35.455Z,73.08
2018-08-22T08:16:35.458Z,72.50
2018-08-22T08:17:35.465Z,72.24
2018-08-22T08:18:35.469Z,71.86
2018-08-22T08:19:35.475Z,72.05
2018-08-22T08:20:35.481Z,71.66
2018-08-22T08:21:35.488Z,71.50
2018-08-22T08:22:35.494Z,70.28
2018-08-22T08:23:35.513Z,67.83
2018-08-22T08:24:35.508Z,65.50
2018-08-22T08:25:35.516Z,64.26
2018-08-22T08:26:35.523Z,62.29
2018-08-22T08:27:35.533Z,60.66
2018-08-22T08:28:35.541Z,59.72
2018-08-22T08:29:35.551Z,58.25
2018-08-22T08:30:35.600Z,59.03
2018-08-22T08:31:35.569Z,58.25
2018-08-22T08:32:35.580Z,58.38
2018-08-22T08:33:35.590Z,56.48
2018-08-22T08:34:35.600Z,55.44
2018-08-22T08:35:35.662Z,53.75
2018-08-22T08:36:35.623Z,54.80
2018-08-22T08:37:35.636Z,54.83
2018-08-22T08:38:35.668Z,54.85
2018-08-22T08:39:35.659Z,54.53
2018-08-22T08:40:35.671Z,54.36
2018-08-22T08:41:35.740Z,54.21
2018-08-22T08:42:35.697Z,55.97
2018-08-22T08:43:35.711Z,56.43
2018-08-22T08:44:35.727Z,54.93
2018-08-22T08:45:35.739Z,54.44
2018-08-22T08:46:35.751Z,53.78
2018-08-22T08:47:35.767Z,53.49
2018-08-22T08:48:35.786Z,52.37
2018-08-22T08:49:36.021Z,51.42
2018-08-22T08:50:35.809Z,52.64
2018-08-22T08:51:35.825Z,53.09
2018-08-22T08:52:35.840Z,52.90
2018-08-22T08:53:35.855Z,53.53
2018-08-22T08:54:35.869Z,53.56
2018-08-22T08:55:35.885Z,53.63
2018-08-22T08:56:35.901Z,53.56
2018-08-22T08:57:35.916Z,53.32
2018-08-22T08:58:35.931Z,52.49
2018-08-22T08:59:35.947Z,51.27
2018-08-22T09:00:35.963Z,52.22
2018-08-22T09:01:35.979Z,52.17
2018-08-22T09:02:36.024Z,50.85
2018-08-22T09:03:36.010Z,50.32
2018-08-22T09:04:36.028Z,47.97
2018-08-22T09:05:36.043Z,49.19
2018-08-22T09:06:36.143Z,50.24
2018-08-22T09:07:36.076Z,50.29
2018-08-22T09:08:36.092Z,49.48
2018-08-22T09:09:36.107Z,49.11
2018-08-22T09:10:36.174Z,47.28
2018-08-22T09:11:36.140Z,46.81
2018-08-22T09:12:36.156Z,46.44
2018-08-22T09:13:36.173Z,45.86
2018-08-22T09:14:36.188Z,45.20
2018-08-22T09:15:36.277Z,46.57
2018-08-22T09:16:36.223Z,45.97
2018-08-22T09:17:36.249Z,46.45
2018-08-22T09:18:36.252Z,47.24
2018-08-22T09:19:36.268Z,46.80
2018-08-22T09:20:36.284Z,46.21
2018-08-22T09:21:36.383Z,47.09
2018-08-22T09:22:36.315Z,49.02
2018-08-22T09:23:36.332Z,49.98
2018-08-22T09:24:36.349Z,50.65
2018-08-22T09:25:36.365Z,51.90
2018-08-22T09:26:36.380Z,52.75
2018-08-22T09:27:36.396Z,52.63
2018-08-22T09:28:36.415Z,52.66
2018-08-22T09:29:36.485Z,52.66
2018-08-22T09:30:36.442Z,52.26
2018-08-22T09:31:36.459Z,53.11
2018-08-22T09:32:36.474Z,54.09
2018-08-22T09:33:36.513Z,53.80
2018-08-22T09:34:36.507Z,53.73
2018-08-22T09:35:36.580Z,52.39
2018-08-22T09:36:36.581Z,51.53
2018-08-22T09:37:36.553Z,50.88
2018-08-22T09:38:36.564Z,51.17
2018-08-22T09:39:36.614Z,49.53
2018-08-22T09:40:36.594Z,48.87
2018-08-22T09:41:36.611Z,49.53
2018-08-22T09:42:36.625Z,51.92
2018-08-22T09:43:36.640Z,50.65
2018-08-22T09:44:36.655Z,50.32
2018-08-22T09:45:36.670Z,48.85
2018-08-22T09:46:36.705Z,49.24
2018-08-22T09:47:36.730Z,50.88
2018-08-22T09:48:36.714Z,50.32
2018-08-22T09:49:36.730Z,50.22
2018-08-22T09:50:36.745Z,51.43
2018-08-22T09:51:36.760Z,51.82
2018-08-22T09:52:36.776Z,50.68
2018-08-22T09:53:36.790Z,50.22
2018-08-22T09:54:36.890Z,49.29
2018-08-22T09:55:36.821Z,48.87
2018-08-22T09:56:36.835Z,46.72
2018-08-22T09:57:36.850Z,47.11
2018-08-22T09:58:36.871Z,46.89
2018-08-22T09:59:36.880Z,47.01
2018-08-22T10:00:36.966Z,48.99
2018-08-22T10:01:36.911Z,50.24
2018-08-22T10:02:36.926Z,48.02
2018-08-22T10:03:36.943Z,47.85
2018-08-22T10:04:36.958Z,47.01
2018-08-22T10:05:36.972Z,45.86
2018-08-22T10:06:37.108Z,47.11
2018-08-22T10:07:37.003Z,50.10
2018-08-22T10:08:37.019Z,50.20
2018-08-22T10:09:37.034Z,49.92
2018-08-22T10:10:37.048Z,50.12
2018-08-22T10:11:37.064Z,50.39
2018-08-22T10:12:37.078Z,49.51
2018-08-22T10:13:37.095Z,49.33
2018-08-22T10:14:37.107Z,48.87
2018-08-22T10:15:37.123Z,47.85
2018-08-22T10:16:37.138Z,46.62
2018-08-22T10:17:37.155Z,46.03
2018-08-22T10:18:37.168Z,44.98
2018-08-22T10:19:37.205Z,45.47
2018-08-22T10:20:37.199Z,45.17
2018-08-22T10:21:37.216Z,45.62
2018-08-22T10:22:37.230Z,46.47
2018-08-22T10:23:37.244Z,47.14
2018-08-22T10:24:37.261Z,46.97
2018-08-22T10:25:37.285Z,45.93
2018-08-22T10:26:37.385Z,45.34
2018-08-22T10:27:37.306Z,44.66
2018-08-22T10:28:37.326Z,44.83
2018-08-22T10:29:37.338Z,45.89
2018-08-22T10:30:37.351Z,46.75
2018-08-22T10:31:37.366Z,48.46
2018-08-22T10:32:37.438Z,47.72
2018-08-22T10:33:37.397Z,47.45
2018-08-22T10:34:37.418Z,45.89
2018-08-22T10:35:37.428Z,46.11
2018-08-22T10:36:37.442Z,46.01
2018-08-22T10:37:37.458Z,46.65
2018-08-22T10:38:37.499Z,47.48
2018-08-22T10:39:37.541Z,47.80
2018-08-22T10:40:37.503Z,47.33
2018-08-22T10:41:37.545Z,47.41
2018-08-22T10:42:37.532Z,50.02
2018-08-22T10:43:37.547Z,50.16
2018-08-22T10:44:37.562Z,50.63
2018-08-22T10:45:37.584Z,50.46
2018-08-22T10:46:37.590Z,50.59
2018-08-22T10:47:37.604Z,50.22
2018-08-22T10:48:37.619Z,49.85
2018-08-22T10:49:37.685Z,49.36
2018-08-22T10:50:37.677Z,48.87
2018-08-22T10:51:37.662Z,49.63
2018-08-22T10:52:37.676Z,50.42
2018-08-22T10:53:37.689Z,50.29
2018-08-22T10:54:37.703Z,49.98
2018-08-22T10:55:37.717Z,51.80
2018-08-22T10:56:37.731Z,52.09
2018-08-22T10:57:37.745Z,50.36
2018-08-22T10:58:37.760Z,50.56
2018-08-22T10:59:37.773Z,50.00
2018-08-22T11:00:37.787Z,50.10
2018-08-22T11:01:37.804Z,48.94
2018-08-22T11:02:37.816Z,49.55
2018-08-22T11:03:37.825Z,49.09
2018-08-22T11:04:37.840Z,49.16
2018-08-22T11:05:37.855Z,49.33
2018-08-22T11:06:37.870Z,49.33
2018-08-22T11:07:37.880Z,50.36
2018-08-22T11:08:37.892Z,50.65
2018-08-22T11:09:37.906Z,51.80
2018-08-22T11:10:37.919Z,51.02
2018-08-22T11:11:37.934Z,51.21
2018-08-22T11:12:37.947Z,51.78
2018-08-22T11:13:37.962Z,52.00
2018-08-22T11:14:37.972Z,51.61
2018-08-22T11:15:38.036Z,51.12
2018-08-22T11:16:38.000Z,52.09
2018-08-22T11:17:38.012Z,51.21
2018-08-22T11:18:38.025Z,52.00
2018-08-22T11:19:38.037Z,51.31
2018-08-22T11:20:38.050Z,52.00
2018-08-22T11:21:38.062Z,52.97
2018-08-22T11:22:38.076Z,52.78
2018-08-22T11:23:38.089Z,52.46
2018-08-22T11:24:38.100Z,52.75
2018-08-22T11:25:38.114Z,52.19
2018-08-22T11:26:38.125Z,52.68
2018-08-22T11:27:38.139Z,52.46
2018-08-22T11:28:38.150Z,52.66
2018-08-22T11:29:38.163Z,52.75
2018-08-22T11:30:38.175Z,53.07
2018-08-22T11:31:38.187Z,52.87
2018-08-22T11:32:38.200Z,53.36
2018-08-22T11:33:38.213Z,52.95
2018-08-22T11:34:38.225Z,53.70
2018-08-22T11:35:38.236Z,53.48
2018-08-22T11:36:38.248Z,53.58
2018-08-22T11:37:38.261Z,54.85
2018-08-22T11:38:38.272Z,54.36
2018-08-22T11:39:38.286Z,54.26
2018-08-22T11:40:38.298Z,53.41
2018-08-22T11:41:38.313Z,53.24
2018-08-22T11:42:38.320Z,52.97
2018-08-22T11:43:38.333Z,52.97
2018-08-22T11:44:38.346Z,51.82
2018-08-22T11:45:38.356Z,51.70
2018-08-22T11:46:38.371Z,50.82
2018-08-22T11:47:38.379Z,51.02
2018-08-22T11:48:38.391Z,50.82
2018-08-22T11:49:38.404Z,50.85
2018-08-22T11:50:38.414Z,50.36
2018-08-22T11:51:38.428Z,50.07
2018-08-22T11:52:38.439Z,50.16
2018-08-22T11:53:38.451Z,50.46
2018-08-22T11:54:38.462Z,51.24
2018-08-22T11:55:38.473Z,50.75
2018-08-22T11:56:38.486Z,51.34
2018-08-22T11:57:38.498Z,51.43
2018-08-22T11:58:38.510Z,50.95
2018-08-22T11:59:38.529Z,50.75
2018-08-22T12:00:38.532Z,52.09
2018-08-22T12:01:38.544Z,52.29
2018-08-22T12:02:38.554Z,53.05
2018-08-22T12:03:38.566Z,53.41
2018-08-22T12:04:38.579Z,53.60
2018-08-22T12:05:38.595Z,53.70
2018-08-22T12:06:38.600Z,53.53
2018-08-22T12:07:38.618Z,53.21
2018-08-22T12:08:38.625Z,54.09
2018-08-22T12:09:38.636Z,54.58
2018-08-22T12:10:38.698Z,53.99
2018-08-22T12:11:38.658Z,53.31
2018-08-22T12:12:38.669Z,53.50
2018-08-22T12:13:38.680Z,53.83
2018-08-22T12:14:38.692Z,53.83
2018-08-22T12:15:38.702Z,53.44
2018-08-22T12:16:38.713Z,53.14
2018-08-22T12:17:38.724Z,53.05
2018-08-22T12:18:38.735Z,52.00
2018-08-22T12:19:38.748Z,52.19
2018-08-22T12:20:38.758Z,51.21
2018-08-22T12:21:38.768Z,51.24
2018-08-22T12:22:38.778Z,51.04
2018-08-22T12:23:38.790Z,51.24
2018-08-22T12:24:38.802Z,50.65
2018-08-22T12:25:38.813Z,51.04
2018-08-22T12:26:38.823Z,50.43
2018-08-22T12:27:38.835Z,51.02
2018-08-22T12:28:38.845Z,51.43
2018-08-22T12:29:38.857Z,50.95
2018-08-22T12:30:38.867Z,51.73
2018-08-22T12:31:38.878Z,51.24
2018-08-22T12:32:38.889Z,51.34
2018-08-22T12:33:38.900Z,52.09
2018-08-22T12:34:38.909Z,51.92
2018-08-22T12:35:38.931Z,52.41
2018-08-22T12:36:38.932Z,52.02
2018-08-22T12:37:38.952Z,52.25
2018-08-22T12:38:38.953Z,51.43
2018-08-22T12:39:38.965Z,51.66
2018-08-22T12:40:38.974Z,50.39
2018-08-22T12:41:38.986Z,50.16
2018-08-22T12:42:38.995Z,50.65
2018-08-22T12:43:39.007Z,51.34
2018-08-22T12:44:39.081Z,50.59
2018-08-22T12:45:39.029Z,50.78
2018-08-22T12:46:39.040Z,50.78
2018-08-22T12:47:39.050Z,50.10
2018-08-22T12:48:39.061Z,50.22
2018-08-22T12:49:39.072Z,49.63
2018-08-22T12:50:39.082Z,50.22
2018-08-22T12:51:39.096Z,50.22
2018-08-22T12:52:39.104Z,50.39